Check out our new PWSWeather beta!
PWSweather.com
Personal Weather Stations
Station Observations
GRD01
Warsaw, LesznoPL 05-084

WarsawLesznoPL 05-084

Lat: 52.257404, Lon: 20.564847

Elevation: 298

Station Type: WH3080

http://pogoda.kampinos.waw.pl

High Low Average
Temperature 77.7°F25.4°C 61.3°F16.3°C 69.4°F20.8°C
Dew Point 65.5°F18.6°C 51.8°F11.0°C 58.4°F14.7°C
Winds 15.9 mph 25.6 kmh Calm Calm 5.0 mph WSW8.0 kmh WSW
Wind Gusts 22.8 mph36.7 kmh -- 10.0 mph16.1 kmh
Humidity 100% 41% 71%
Pressure 30.36 in1028.1 mb 30.14 in1020.7 mb -
Precipitation 0.09 in2.3 mm - -
Hour Temp Dew Point Humidity Winds Wind Gusts Pressure Precip Precip Rate Daily Precip Total
12:00 AM 66.2°F19.0°C 64.1°F17.8°C 93% 3.1 mph S5.0 kmh S 5.4 mph8.7 kmh 30.16 in1021.3 mb 0.05 in1.3 mm 0.00 in0.0 mm 0.05 in1.3 mm
12:15 AM 66.2°F19.0°C 64.4°F18.0°C 94% 1.6 mph SW2.6 kmh SW 2.2 mph3.5 kmh 30.16 in1021.3 mb 0.06 in1.5 mm 0.04 in1.0 mm 0.06 in1.5 mm
12:30 AM 66.2°F19.0°C 64.4°F18.0°C 94% 3.1 mph SW5.0 kmh SW 3.8 mph6.1 kmh 30.16 in1021.3 mb 0.06 in1.5 mm 0.00 in0.0 mm 0.07 in1.8 mm
12:45 AM 66.2°F19.0°C 64.4°F18.0°C 94% Calm Calm 5.4 mph8.7 kmh 30.16 in1021.3 mb 0.05 in1.3 mm 0.00 in0.0 mm 0.08 in2.0 mm
01:00 AM 66.2°F19.0°C 64.7°F18.2°C 95% 0.7 mph SW1.1 kmh SW 2.2 mph3.5 kmh 30.15 in1021.0 mb 0.04 in1.0 mm 0.00 in0.0 mm 0.08 in2.0 mm
01:15 AM 66.2°F19.0°C 64.7°F18.2°C 95% 2.2 mph SSW3.5 kmh SSW 5.4 mph8.7 kmh 30.14 in1020.7 mb 0.02 in0.5 mm 0.00 in0.0 mm 0.08 in2.0 mm
01:30 AM 66.2°F19.0°C 64.7°F18.2°C 95% 1.6 mph S2.6 kmh S 4.5 mph7.2 kmh 30.15 in1021.0 mb 0.02 in0.5 mm 0.00 in0.0 mm 0.09 in2.3 mm
01:45 AM 66.2°F19.0°C 65.0°F18.3°C 96% 1.6 mph S2.6 kmh S 4.5 mph7.2 kmh 30.14 in1020.7 mb 0.01 in0.3 mm 0.00 in0.0 mm 0.09 in2.3 mm
02:00 AM 66.2°F19.0°C 65.0°F18.3°C 96% 1.6 mph S2.6 kmh S 6.9 mph11.1 kmh 30.14 in1020.7 mb 0.01 in0.3 mm 0.00 in0.0 mm 0.09 in2.3 mm
02:15 AM 66.2°F19.0°C 65.0°F18.3°C 96% 3.1 mph WSW5.0 kmh WSW 6.9 mph11.1 kmh 30.15 in1021.0 mb 0.01 in0.3 mm 0.00 in0.0 mm 0.09 in2.3 mm
02:30 AM 66.0°F18.9°C 65.1°F18.4°C 97% 3.1 mph WSW5.0 kmh WSW 8.3 mph13.4 kmh 30.15 in1021.0 mb 0.00 in0.0 mm 0.00 in0.0 mm 0.09 in2.3 mm
02:45 AM 65.8°F18.8°C 65.0°F18.3°C 97% 6.0 mph W9.7 kmh W 9.8 mph15.8 kmh 30.14 in1020.7 mb 0.00 in0.0 mm 0.00 in0.0 mm 0.09 in2.3 mm
03:00 AM 65.7°F18.7°C 64.8°F18.2°C 97% 3.8 mph WNW6.1 kmh WNW 6.9 mph11.1 kmh 30.14 in1020.7 mb 0.00 in0.0 mm 0.00 in0.0 mm 0.09 in2.3 mm
03:15 AM 65.3°F18.5°C 64.4°F18.0°C 97% 3.8 mph NW6.1 kmh NW 9.2 mph14.8 kmh 30.14 in1020.7 mb 0.00 in0.0 mm 0.00 in0.0 mm 0.09 in2.3 mm
03:30 AM 64.9°F18.3°C 63.8°F17.7°C 96% 5.4 mph WNW8.7 kmh WNW 13.0 mph20.9 kmh 30.15 in1021.0 mb 0.00 in0.0 mm 0.00 in0.0 mm 0.09 in2.3 mm
03:45 AM 64.8°F18.2°C 63.6°F17.6°C 96% 3.1 mph WNW5.0 kmh WNW 10.7 mph17.2 kmh 30.14 in1020.7 mb 0.00 in0.0 mm 0.00 in0.0 mm 0.09 in2.3 mm
04:00 AM 64.8°F18.2°C 63.6°F17.6°C 96% 5.4 mph NW8.7 kmh NW 11.4 mph18.3 kmh 30.15 in1021.0 mb 0.00 in0.0 mm 0.00 in0.0 mm 0.09 in2.3 mm
04:15 AM 64.6°F18.1°C 63.4°F17.4°C 96% 5.4 mph NW8.7 kmh NW 8.3 mph13.4 kmh 30.14 in1020.7 mb 0.00 in0.0 mm 0.00 in0.0 mm 0.09 in2.3 mm
04:30 AM 64.4°F18.0°C 63.2°F17.3°C 96% 3.8 mph NW6.1 kmh NW 6.9 mph11.1 kmh 30.15 in1021.0 mb 0.00 in0.0 mm 0.00 in0.0 mm 0.09 in2.3 mm
04:45 AM 64.4°F18.0°C 63.5°F17.5°C 97% 5.4 mph W8.7 kmh W 8.3 mph13.4 kmh 30.16 in1021.3 mb 0.00 in0.0 mm 0.00 in0.0 mm 0.09 in2.3 mm
05:00 AM 64.6°F18.1°C 63.7°F17.6°C 97% 3.8 mph W6.1 kmh W 6.9 mph11.1 kmh 30.15 in1021.0 mb 0.00 in0.0 mm 0.00 in0.0 mm 0.09 in2.3 mm
05:15 AM 64.6°F18.1°C 63.7°F17.6°C 97% 3.8 mph SW6.1 kmh SW 9.8 mph15.8 kmh 30.15 in1021.0 mb 0.00 in0.0 mm 0.00 in0.0 mm 0.09 in2.3 mm
05:30 AM 64.8°F18.2°C 63.9°F17.7°C 97% 4.5 mph WSW7.2 kmh WSW 8.3 mph13.4 kmh 30.16 in1021.3 mb 0.00 in0.0 mm 0.00 in0.0 mm 0.09 in2.3 mm
05:45 AM 64.8°F18.2°C 63.9°F17.7°C 97% 3.1 mph W5.0 kmh W 10.7 mph17.2 kmh 30.16 in1021.3 mb 0.00 in0.0 mm 0.00 in0.0 mm 0.09 in2.3 mm
06:00 AM 64.8°F18.2°C 63.9°F17.7°C 97% 3.1 mph W5.0 kmh W 13.0 mph20.9 kmh 30.17 in1021.7 mb 0.00 in0.0 mm 0.00 in0.0 mm 0.09 in2.3 mm
06:15 AM 64.8°F18.2°C 63.9°F17.7°C 97% 5.4 mph WSW8.7 kmh WSW 9.2 mph14.8 kmh 30.18 in1022.0 mb 0.00 in0.0 mm 0.00 in0.0 mm 0.09 in2.3 mm
06:30 AM 64.9°F18.3°C 64.1°F17.8°C 97% 5.4 mph NW8.7 kmh NW 6.9 mph11.1 kmh 30.19 in1022.4 mb 0.00 in0.0 mm 0.00 in0.0 mm 0.09 in2.3 mm
06:45 AM 65.1°F18.4°C 64.2°F17.9°C 97% 4.5 mph NW7.2 kmh NW 10.7 mph17.2 kmh 30.19 in1022.4 mb 0.00 in0.0 mm 0.00 in0.0 mm 0.09 in2.3 mm
07:00 AM 65.5°F18.6°C 65.5°F18.6°C 100% 6.0 mph NE9.7 kmh NE 13.0 mph20.9 kmh 30.20 in1022.7 mb 0.00 in0.0 mm 0.00 in0.0 mm 0.09 in2.3 mm
07:15 AM 65.8°F18.8°C 65.0°F18.3°C 97% 8.3 mph W13.4 kmh W 13.6 mph21.9 kmh 30.20 in1022.7 mb 0.00 in0.0 mm 0.00 in0.0 mm 0.09 in2.3 mm
07:30 AM 66.4°F19.1°C 64.9°F18.3°C 95% 5.4 mph WNW8.7 kmh WNW 13.6 mph21.9 kmh 30.20 in1022.7 mb 0.00 in0.0 mm 0.00 in0.0 mm 0.09 in2.3 mm
07:45 AM 66.7°F19.3°C 64.3°F17.9°C 92% 8.3 mph NW13.4 kmh NW 12.1 mph19.5 kmh 30.21 in1023.0 mb 0.00 in0.0 mm 0.00 in0.0 mm 0.09 in2.3 mm
08:00 AM 67.5°F19.7°C 63.8°F17.7°C 88% 8.3 mph W13.4 kmh W 16.8 mph27.0 kmh 30.21 in1023.0 mb 0.00 in0.0 mm 0.00 in0.0 mm 0.09 in2.3 mm
08:15 AM 68.2°F20.1°C 62.5°F16.9°C 82% 12.1 mph WNW19.5 kmh WNW 16.8 mph27.0 kmh 30.22 in1023.4 mb 0.00 in0.0 mm 0.00 in0.0 mm 0.09 in2.3 mm
08:30 AM 68.5°F20.3°C 61.4°F16.3°C 78% 9.2 mph WNW14.8 kmh WNW 22.8 mph36.7 kmh 30.22 in1023.4 mb 0.00 in0.0 mm 0.00 in0.0 mm 0.09 in2.3 mm
08:45 AM 69.3°F20.7°C 61.4°F16.3°C 76% 9.2 mph WNW14.8 kmh WNW 16.8 mph27.0 kmh 30.23 in1023.7 mb 0.00 in0.0 mm 0.00 in0.0 mm 0.09 in2.3 mm
09:00 AM 69.8°F21.0°C 60.8°F16.0°C 73% 9.8 mph WNW15.8 kmh WNW 20.6 mph33.2 kmh 30.23 in1023.7 mb 0.00 in0.0 mm 0.00 in0.0 mm 0.09 in2.3 mm
09:15 AM 70.5°F21.4°C 60.7°F15.9°C 71% 7.6 mph NW12.2 kmh NW 14.5 mph23.3 kmh 30.24 in1024.0 mb 0.00 in0.0 mm 0.00 in0.0 mm 0.09 in2.3 mm
09:30 AM 71.1°F21.7°C 60.8°F16.0°C 70% 13.0 mph NW20.9 kmh NW 18.3 mph29.5 kmh 30.25 in1024.4 mb 0.00 in0.0 mm 0.00 in0.0 mm 0.09 in2.3 mm
09:45 AM 71.8°F22.1°C 60.2°F15.7°C 67% 9.2 mph WNW14.8 kmh WNW 18.3 mph29.5 kmh 30.25 in1024.4 mb 0.00 in0.0 mm 0.00 in0.0 mm 0.09 in2.3 mm
10:00 AM 72.1°F22.3°C 60.2°F15.7°C 66% 6.9 mph NNW11.1 kmh NNW 19.0 mph30.6 kmh 30.25 in1024.4 mb 0.00 in0.0 mm 0.00 in0.0 mm 0.09 in2.3 mm
10:15 AM 72.9°F22.7°C 58.2°F14.6°C 60% 9.2 mph WSW14.8 kmh WSW 16.8 mph27.0 kmh 30.25 in1024.4 mb 0.00 in0.0 mm 0.00 in0.0 mm 0.09 in2.3 mm
10:30 AM 73.6°F23.1°C 57.9°F14.4°C 58% 13.6 mph WNW21.9 kmh WNW 19.0 mph30.6 kmh 30.26 in1024.7 mb 0.00 in0.0 mm 0.00 in0.0 mm 0.09 in2.3 mm
10:45 AM 73.6°F23.1°C 57.9°F14.4°C 58% 4.5 mph W7.2 kmh W 15.2 mph24.5 kmh 30.27 in1025.1 mb 0.00 in0.0 mm 0.00 in0.0 mm 0.09 in2.3 mm
11:00 AM 74.5°F23.6°C 56.7°F13.7°C 54% 14.5 mph W23.3 kmh W 17.4 mph28.0 kmh 30.27 in1025.1 mb 0.00 in0.0 mm 0.00 in0.0 mm 0.09 in2.3 mm
11:15 AM 74.1°F23.4°C 55.9°F13.3°C 53% 6.0 mph W9.7 kmh W 17.4 mph28.0 kmh 30.27 in1025.1 mb 0.00 in0.0 mm 0.00 in0.0 mm 0.09 in2.3 mm
11:30 AM 75.2°F24.0°C 56.4°F13.6°C 52% 7.6 mph W12.2 kmh W 18.3 mph29.5 kmh 30.27 in1025.1 mb 0.00 in0.0 mm 0.00 in0.0 mm 0.09 in2.3 mm
11:45 AM 75.4°F24.1°C 55.4°F13.0°C 50% 15.9 mph NW25.6 kmh NW 19.0 mph30.6 kmh 30.27 in1025.1 mb 0.00 in0.0 mm 0.00 in0.0 mm 0.09 in2.3 mm
12:00 PM 75.4°F24.1°C 55.4°F13.0°C 50% 9.2 mph NW14.8 kmh NW 17.4 mph28.0 kmh 30.27 in1025.1 mb 0.00 in0.0 mm 0.00 in0.0 mm 0.09 in2.3 mm
12:15 PM 75.4°F24.1°C 56.5°F13.6°C 52% 6.9 mph W11.1 kmh W 14.5 mph23.3 kmh 30.28 in1025.4 mb 0.00 in0.0 mm 0.00 in0.0 mm 0.09 in2.3 mm
12:30 PM 76.6°F24.8°C 56.6°F13.7°C 50% 10.7 mph WSW17.2 kmh WSW 16.8 mph27.0 kmh 30.28 in1025.4 mb 0.00 in0.0 mm 0.00 in0.0 mm 0.09 in2.3 mm
12:45 PM 76.8°F24.9°C 56.2°F13.4°C 49% 8.3 mph WNW13.4 kmh WNW 15.9 mph25.6 kmh 30.29 in1025.7 mb 0.00 in0.0 mm 0.00 in0.0 mm 0.09 in2.3 mm
01:00 PM 76.3°F24.6°C 56.3°F13.5°C 50% 8.3 mph WNW13.4 kmh WNW 13.6 mph21.9 kmh 30.28 in1025.4 mb 0.00 in0.0 mm 0.00 in0.0 mm 0.09 in2.3 mm
01:15 PM 76.1°F24.5°C 55.0°F12.8°C 48% 7.6 mph W12.2 kmh W 15.9 mph25.6 kmh 30.28 in1025.4 mb 0.00 in0.0 mm 0.00 in0.0 mm 0.09 in2.3 mm
01:30 PM 76.5°F24.7°C 53.5°F11.9°C 45% 9.2 mph WNW14.8 kmh WNW 19.0 mph30.6 kmh 30.29 in1025.7 mb 0.00 in0.0 mm 0.00 in0.0 mm 0.09 in2.3 mm
01:45 PM 77.2°F25.1°C 52.9°F11.6°C 43% 10.7 mph W17.2 kmh W 19.0 mph30.6 kmh 30.28 in1025.4 mb 0.00 in0.0 mm 0.00 in0.0 mm 0.09 in2.3 mm
02:00 PM 77.4°F25.2°C 53.1°F11.7°C 43% 6.0 mph WNW9.7 kmh WNW 16.8 mph27.0 kmh 30.28 in1025.4 mb 0.00 in0.0 mm 0.00 in0.0 mm 0.09 in2.3 mm
02:15 PM 77.0°F25.0°C 52.8°F11.6°C 43% 6.9 mph WNW11.1 kmh WNW 14.5 mph23.3 kmh 30.28 in1025.4 mb 0.00 in0.0 mm 0.00 in0.0 mm 0.09 in2.3 mm
02:30 PM 77.5°F25.3°C 52.6°F11.4°C 42% 6.9 mph W11.1 kmh W 15.9 mph25.6 kmh 30.29 in1025.7 mb 0.00 in0.0 mm 0.00 in0.0 mm 0.09 in2.3 mm
02:45 PM 77.4°F25.2°C 52.5°F11.4°C 42% 6.0 mph NW9.7 kmh NW 15.2 mph24.5 kmh 30.28 in1025.4 mb 0.00 in0.0 mm 0.00 in0.0 mm 0.09 in2.3 mm
03:00 PM 77.4°F25.2°C 51.8°F11.0°C 41% 5.4 mph W8.7 kmh W 16.8 mph27.0 kmh 30.28 in1025.4 mb 0.00 in0.0 mm 0.00 in0.0 mm 0.09 in2.3 mm
03:15 PM 77.0°F25.0°C 52.1°F11.2°C 42% 9.2 mph W14.8 kmh W 17.4 mph28.0 kmh 30.28 in1025.4 mb 0.00 in0.0 mm 0.00 in0.0 mm 0.09 in2.3 mm
03:30 PM 76.3°F24.6°C 52.1°F11.2°C 43% 6.0 mph NW9.7 kmh NW 13.0 mph20.9 kmh 30.29 in1025.7 mb 0.00 in0.0 mm 0.00 in0.0 mm 0.09 in2.3 mm
03:45 PM 77.0°F25.0°C 52.8°F11.6°C 43% 5.4 mph WSW8.7 kmh WSW 18.3 mph29.5 kmh 30.29 in1025.7 mb 0.00 in0.0 mm 0.00 in0.0 mm 0.09 in2.3 mm
04:00 PM 77.7°F25.4°C 52.8°F11.6°C 42% 9.8 mph SW15.8 kmh SW 16.8 mph27.0 kmh 30.29 in1025.7 mb 0.00 in0.0 mm 0.00 in0.0 mm 0.09 in2.3 mm
04:15 PM 76.1°F24.5°C 52.6°F11.4°C 44% 3.1 mph WNW5.0 kmh WNW 16.8 mph27.0 kmh 30.30 in1026.1 mb 0.00 in0.0 mm 0.00 in0.0 mm 0.09 in2.3 mm
04:30 PM 75.6°F24.2°C 53.3°F11.8°C 46% 3.8 mph WNW6.1 kmh WNW 7.6 mph12.2 kmh 30.30 in1026.1 mb 0.00 in0.0 mm 0.00 in0.0 mm 0.09 in2.3 mm
04:45 PM 75.9°F24.4°C 53.6°F12.0°C 46% 6.9 mph W11.1 kmh W 9.8 mph15.8 kmh 30.29 in1025.7 mb 0.00 in0.0 mm 0.00 in0.0 mm 0.09 in2.3 mm
05:00 PM 76.3°F24.6°C 52.8°F11.6°C 44% 7.6 mph WNW12.2 kmh WNW 11.4 mph18.3 kmh 30.29 in1025.7 mb 0.00 in0.0 mm 0.00 in0.0 mm 0.09 in2.3 mm
05:15 PM 76.1°F24.5°C 52.6°F11.4°C 44% 6.9 mph NW11.1 kmh NW 10.7 mph17.2 kmh 30.30 in1026.1 mb 0.00 in0.0 mm 0.00 in0.0 mm 0.09 in2.3 mm
05:30 PM 75.7°F24.3°C 52.3°F11.3°C 44% 9.2 mph NW14.8 kmh NW 11.4 mph18.3 kmh 30.30 in1026.1 mb 0.00 in0.0 mm 0.00 in0.0 mm 0.09 in2.3 mm
05:45 PM 75.2°F24.0°C 52.4°F11.3°C 45% 6.0 mph W9.7 kmh W 9.8 mph15.8 kmh 30.29 in1025.7 mb 0.00 in0.0 mm 0.00 in0.0 mm 0.09 in2.3 mm
06:00 PM 74.5°F23.6°C 52.9°F11.6°C 47% 2.2 mph W3.5 kmh W 12.1 mph19.5 kmh 30.30 in1026.1 mb 0.00 in0.0 mm 0.00 in0.0 mm 0.09 in2.3 mm
06:15 PM 73.8°F23.2°C 53.4°F11.9°C 49% 3.1 mph SW5.0 kmh SW 6.9 mph11.1 kmh 30.30 in1026.1 mb 0.00 in0.0 mm 0.00 in0.0 mm 0.09 in2.3 mm
06:30 PM 73.0°F22.8°C 53.3°F11.8°C 50% 0.7 mph WSW1.1 kmh WSW 4.5 mph7.2 kmh 30.30 in1026.1 mb 0.00 in0.0 mm 0.00 in0.0 mm 0.09 in2.3 mm
06:45 PM 72.1°F22.3°C 54.6°F12.6°C 54% Calm Calm 2.2 mph3.5 kmh 30.30 in1026.1 mb 0.00 in0.0 mm 0.00 in0.0 mm 0.09 in2.3 mm
07:00 PM 71.6°F22.0°C 55.1°F12.8°C 56% Calm Calm 0.7 mph1.1 kmh 30.30 in1026.1 mb 0.00 in0.0 mm 0.00 in0.0 mm 0.09 in2.3 mm
07:15 PM 69.6°F20.9°C 55.6°F13.1°C 61% Calm Calm 0.7 mph1.1 kmh 30.31 in1026.4 mb 0.00 in0.0 mm 0.00 in0.0 mm 0.09 in2.3 mm
07:30 PM 68.4°F20.2°C 54.8°F12.7°C 62% 0.7 mph SW1.1 kmh SW 1.6 mph2.6 kmh 30.31 in1026.4 mb 0.00 in0.0 mm 0.00 in0.0 mm 0.09 in2.3 mm
07:45 PM 67.5°F19.7°C 54.9°F12.7°C 64% Calm Calm 0.7 mph1.1 kmh 30.30 in1026.1 mb 0.00 in0.0 mm 0.00 in0.0 mm 0.09 in2.3 mm
08:00 PM 66.7°F19.3°C 55.4°F13.0°C 67% Calm Calm -- 30.30 in1026.1 mb 0.00 in0.0 mm 0.00 in0.0 mm 0.09 in2.3 mm
08:15 PM 65.5°F18.6°C 55.0°F12.8°C 69% 0.7 mph SW1.1 kmh SW 1.6 mph2.6 kmh 30.31 in1026.4 mb 0.00 in0.0 mm 0.00 in0.0 mm 0.09 in2.3 mm
08:30 PM 64.8°F18.2°C 54.7°F12.6°C 70% 0.7 mph SW1.1 kmh SW 1.6 mph2.6 kmh 30.31 in1026.4 mb 0.00 in0.0 mm 0.00 in0.0 mm 0.09 in2.3 mm
08:45 PM 64.4°F18.0°C 54.8°F12.7°C 71% 0.7 mph SW1.1 kmh SW 1.6 mph2.6 kmh 30.30 in1026.1 mb 0.00 in0.0 mm 0.00 in0.0 mm 0.09 in2.3 mm
09:00 PM 63.7°F17.6°C 54.5°F12.5°C 72% 1.6 mph SW2.6 kmh SW 2.2 mph3.5 kmh 30.30 in1026.1 mb 0.00 in0.0 mm 0.00 in0.0 mm 0.09 in2.3 mm
09:15 PM 63.0°F17.2°C 55.3°F12.9°C 76% 0.7 mph SW1.1 kmh SW 2.2 mph3.5 kmh 30.30 in1026.1 mb 0.00 in0.0 mm 0.00 in0.0 mm 0.09 in2.3 mm
09:30 PM 62.8°F17.1°C 55.5°F13.1°C 77% Calm Calm 0.7 mph1.1 kmh 30.30 in1026.1 mb 0.00 in0.0 mm 0.00 in0.0 mm 0.09 in2.3 mm
09:45 PM 62.2°F16.8°C 55.6°F13.1°C 79% Calm Calm 1.6 mph2.6 kmh 30.30 in1026.1 mb 0.00 in0.0 mm 0.00 in0.0 mm 0.09 in2.3 mm
10:00 PM 61.7°F16.5°C 55.5°F13.1°C 80% Calm Calm 1.6 mph2.6 kmh 30.31 in1026.4 mb 0.00 in0.0 mm 0.00 in0.0 mm 0.09 in2.3 mm
10:15 PM 61.3°F16.3°C 55.1°F12.8°C 80% 0.7 mph SW1.1 kmh SW 2.2 mph3.5 kmh 30.32 in1026.8 mb 0.00 in0.0 mm 0.00 in0.0 mm 0.09 in2.3 mm
10:30 PM 61.9°F16.6°C 55.6°F13.1°C 80% 1.6 mph S2.6 kmh S 4.5 mph7.2 kmh 30.32 in1026.8 mb 0.00 in0.0 mm 0.00 in0.0 mm 0.09 in2.3 mm
10:45 PM 62.2°F16.8°C 55.6°F13.1°C 79% Calm Calm 2.2 mph3.5 kmh 30.32 in1026.8 mb 0.00 in0.0 mm 0.00 in0.0 mm 0.09 in2.3 mm
11:00 PM 61.7°F16.5°C 54.8°F12.7°C 78% 0.7 mph S1.1 kmh S 3.8 mph6.1 kmh 30.31 in1026.4 mb 0.00 in0.0 mm 0.00 in0.0 mm 0.06 in1.5 mm
11:15 PM 61.5°F16.4°C 54.9°F12.7°C 79% 1.6 mph S2.6 kmh S 2.2 mph3.5 kmh 30.32 in1026.8 mb 0.00 in0.0 mm 0.00 in0.0 mm 0.06 in1.5 mm
11:30 PM 62.6°F17.0°C 56.0°F13.3°C 79% 10.7 mph NW17.2 kmh NW 13.6 mph21.9 kmh 30.35 in1027.8 mb 0.00 in0.0 mm 0.00 in0.0 mm 0.06 in1.5 mm
11:45 PM 63.3°F17.4°C 54.5°F12.5°C 73% 9.8 mph NW15.8 kmh NW 13.6 mph21.9 kmh 30.36 in1028.1 mb 0.00 in0.0 mm 0.00 in0.0 mm 0.06 in1.5 mm